createdAt,value
2023-12-12T00:00:16.549Z,60.49
2023-12-12T00:01:13.993Z,60.80
2023-12-12T00:02:13.981Z,61.70
2023-12-12T00:03:13.860Z,61.81
2023-12-12T00:04:13.898Z,62.98
2023-12-12T00:05:13.914Z,60.75
2023-12-12T00:06:13.753Z,61.08
2023-12-12T00:07:13.871Z,61.61
2023-12-12T00:08:13.760Z,60.30
2023-12-12T00:09:13.790Z,60.82
2023-12-12T00:10:13.802Z,61.76
2023-12-12T00:11:13.774Z,61.67
2023-12-12T00:12:13.774Z,62.20
2023-12-12T00:13:13.805Z,62.69
2023-12-12T00:14:13.771Z,60.06
2023-12-12T00:15:13.779Z,63.31
2023-12-12T00:16:13.791Z,62.93
2023-12-12T00:17:13.819Z,63.34
2023-12-12T00:18:13.974Z,60.31
2023-12-12T00:19:13.917Z,62.74
2023-12-12T00:20:13.768Z,59.82
2023-12-12T00:21:13.817Z,62.48
2023-12-12T00:22:13.868Z,59.66
2023-12-12T00:23:13.832Z,63.12
2023-12-12T00:24:13.781Z,62.50
2023-12-12T00:25:13.821Z,62.23
2023-12-12T00:26:13.783Z,61.11
2023-12-12T00:27:13.810Z,62.67
2023-12-12T00:28:13.879Z,61.02
2023-12-12T00:29:13.782Z,62.40
2023-12-12T00:30:13.778Z,62.55
2023-12-12T00:31:13.807Z,64.15
2023-12-12T00:32:13.790Z,62.45
2023-12-12T00:33:13.896Z,63.26
2023-12-12T00:34:13.816Z,63.95
2023-12-12T00:35:13.764Z,61.02
2023-12-12T00:36:13.766Z,60.49
2023-12-12T00:37:13.846Z,61.32
2023-12-12T00:38:13.937Z,63.03
2023-12-12T00:39:13.851Z,61.96
2023-12-12T00:40:13.856Z,61.22
2023-12-12T00:41:13.793Z,62.98
2023-12-12T00:42:13.786Z,61.63
2023-12-12T00:43:13.836Z,63.81
2023-12-12T00:44:13.812Z,61.50
2023-12-12T00:45:13.823Z,63.00
2023-12-12T00:46:13.858Z,63.56
2023-12-12T00:47:13.886Z,60.60
2023-12-12T00:48:13.867Z,60.83
2023-12-12T00:49:13.961Z,63.80
2023-12-12T00:50:13.834Z,62.13
2023-12-12T00:51:13.819Z,63.00
2023-12-12T00:52:13.879Z,62.39
2023-12-12T00:53:13.839Z,63.20
2023-12-12T00:54:13.840Z,61.40
2023-12-12T00:55:13.876Z,60.35
2023-12-12T00:56:13.802Z,62.60
2023-12-12T00:57:13.816Z,63.75
2023-12-12T00:58:13.862Z,61.75
2023-12-12T00:59:13.869Z,64.98
2023-12-12T01:00:13.814Z,62.53
2023-12-12T01:01:13.884Z,61.12
2023-12-12T01:02:13.837Z,59.91
2023-12-12T01:03:13.834Z,60.28
2023-12-12T01:04:14.058Z,63.34
2023-12-12T01:05:13.918Z,63.32
2023-12-12T01:06:13.824Z,60.88
2023-12-12T01:07:13.829Z,61.82
2023-12-12T01:08:13.831Z,62.57
2023-12-12T01:09:13.786Z,61.27
2023-12-12T01:10:13.905Z,61.99
2023-12-12T01:11:13.853Z,63.54
2023-12-12T01:12:13.836Z,61.09
2023-12-12T01:13:13.863Z,61.16
2023-12-12T01:14:13.819Z,60.34
2023-12-12T01:15:13.815Z,61.82
2023-12-12T01:16:13.884Z,63.15
2023-12-12T01:17:13.823Z,63.31
2023-12-12T01:18:13.913Z,59.60
2023-12-12T01:19:13.906Z,59.93
2023-12-12T01:20:13.802Z,61.36
2023-12-12T01:21:13.820Z,60.92
2023-12-12T01:22:13.856Z,63.62
2023-12-12T01:23:13.847Z,62.31
2023-12-12T01:24:13.861Z,61.80
2023-12-12T01:25:13.912Z,61.88
2023-12-12T01:26:13.806Z,61.69
2023-12-12T01:27:13.838Z,61.74
2023-12-12T01:28:13.875Z,62.52
2023-12-12T01:29:13.858Z,61.72
2023-12-12T01:30:13.828Z,62.57
2023-12-12T01:31:13.894Z,62.38
2023-12-12T01:32:24.824Z,60.68
2023-12-12T01:33:14.051Z,60.87
2023-12-12T01:34:14.113Z,61.47
2023-12-12T01:35:14.092Z,62.08
2023-12-12T01:36:13.927Z,61.63
2023-12-12T01:37:13.938Z,64.78
2023-12-12T01:38:13.870Z,62.89
2023-12-12T01:39:13.902Z,63.20
2023-12-12T01:40:13.885Z,63.21
2023-12-12T01:41:13.898Z,63.65
2023-12-12T01:42:13.913Z,61.30
2023-12-12T01:43:13.890Z,60.67
2023-12-12T01:44:13.863Z,62.83
2023-12-12T01:45:15.375Z,62.54
2023-12-12T01:46:13.932Z,63.01
2023-12-12T01:47:13.889Z,61.82
2023-12-12T01:48:13.921Z,62.90
2023-12-12T01:49:13.955Z,62.74
2023-12-12T01:50:13.863Z,61.74
2023-12-12T01:51:13.925Z,60.96
2023-12-12T01:52:13.953Z,60.56
2023-12-12T01:53:13.848Z,58.37
2023-12-12T01:54:13.871Z,61.38
2023-12-12T01:55:14.340Z,60.79
2023-12-12T01:56:13.858Z,60.07
2023-12-12T01:57:13.857Z,62.55
2023-12-12T01:58:13.898Z,62.48
2023-12-12T01:59:13.875Z,60.50
2023-12-12T02:00:13.860Z,62.12
2023-12-12T02:01:13.943Z,61.66
2023-12-12T02:02:13.880Z,60.28
2023-12-12T02:03:13.880Z,60.85
2023-12-12T02:04:14.044Z,57.37
2023-12-12T02:05:13.965Z,62.00
2023-12-12T02:06:13.936Z,60.05
2023-12-12T02:07:13.900Z,62.54
2023-12-12T02:08:13.928Z,60.33
2023-12-12T02:09:13.871Z,60.24
2023-12-12T02:10:13.925Z,62.80
2023-12-12T02:11:13.893Z,60.12
2023-12-12T02:12:13.891Z,60.80
2023-12-12T02:13:13.947Z,61.07
2023-12-12T02:14:13.897Z,59.49
2023-12-12T02:15:13.918Z,62.95
2023-12-12T02:16:13.917Z,62.81
2023-12-12T02:17:13.914Z,61.25
2023-12-12T02:18:13.936Z,61.91
2023-12-12T02:19:13.944Z,62.55
2023-12-12T02:20:13.913Z,61.58
2023-12-12T02:21:13.896Z,59.41
2023-12-12T02:22:13.961Z,58.47
2023-12-12T02:23:13.928Z,61.24
2023-12-12T02:24:13.940Z,59.58
2023-12-12T02:25:14.006Z,61.64
2023-12-12T02:26:13.935Z,61.00
2023-12-12T02:27:13.962Z,62.54
2023-12-12T02:28:14.052Z,62.82
2023-12-12T02:29:13.963Z,61.10
2023-12-12T02:30:13.989Z,60.61
2023-12-12T02:31:14.031Z,60.27
2023-12-12T02:32:14.017Z,59.79
2023-12-12T02:33:14.077Z,63.47
2023-12-12T02:34:14.024Z,61.19
2023-12-12T02:35:14.034Z,59.33
2023-12-12T02:36:14.022Z,59.16
2023-12-12T02:37:14.077Z,58.36
2023-12-12T02:38:14.024Z,61.04
2023-12-12T02:39:14.044Z,61.33
2023-12-12T02:40:14.081Z,60.05
2023-12-12T02:41:14.043Z,60.68
2023-12-12T02:42:14.056Z,59.53
2023-12-12T02:43:14.135Z,60.40
2023-12-12T02:44:14.117Z,60.74
2023-12-12T02:45:14.080Z,58.76
2023-12-12T02:46:14.163Z,59.98
2023-12-12T02:47:14.129Z,60.19
2023-12-12T02:48:14.222Z,61.29
2023-12-12T02:49:14.219Z,60.76
2023-12-12T02:50:14.201Z,60.88
2023-12-12T02:51:14.152Z,59.36
2023-12-12T02:52:14.204Z,60.78
2023-12-12T02:53:14.166Z,61.58
2023-12-12T02:54:14.186Z,61.95
2023-12-12T02:55:14.218Z,59.43
2023-12-12T02:56:14.180Z,59.81
2023-12-12T02:57:14.228Z,61.06
2023-12-12T02:58:14.303Z,61.54
2023-12-12T02:59:14.250Z,60.40
2023-12-12T03:00:14.294Z,59.27
2023-12-12T03:01:14.520Z,61.14
2023-12-12T03:02:14.267Z,59.15
2023-12-12T03:03:14.441Z,63.05
2023-12-12T03:04:14.324Z,61.52
2023-12-12T03:05:14.377Z,57.89
2023-12-12T03:06:14.338Z,59.30
2023-12-12T03:07:14.327Z,60.64
2023-12-12T03:08:14.329Z,59.24
2023-12-12T03:09:14.302Z,59.15
2023-12-12T03:10:14.380Z,60.17
2023-12-12T03:11:14.312Z,60.49
2023-12-12T03:12:14.371Z,58.83
2023-12-12T03:13:14.366Z,60.22
2023-12-12T03:14:15.112Z,59.46
2023-12-12T03:15:14.671Z,59.44
2023-12-12T03:16:14.665Z,61.71
2023-12-12T03:17:14.677Z,60.64
2023-12-12T03:18:14.766Z,60.19
2023-12-12T03:19:14.757Z,59.35
2023-12-12T03:20:14.722Z,59.24
2023-12-12T03:21:14.627Z,58.59
2023-12-12T03:22:14.727Z,61.45
2023-12-12T03:23:14.615Z,59.83
2023-12-12T03:24:14.716Z,59.52
2023-12-12T03:25:14.743Z,59.00
2023-12-12T03:26:14.765Z,59.00
2023-12-12T03:27:14.826Z,57.51
2023-12-12T03:28:14.884Z,57.71
2023-12-12T03:29:14.890Z,58.04
2023-12-12T03:30:15.015Z,57.41
2023-12-12T03:31:15.053Z,56.65
2023-12-12T03:32:15.014Z,57.76
2023-12-12T03:33:15.119Z,58.50
2023-12-12T03:34:15.176Z,58.42
2023-12-12T03:35:15.195Z,57.82
2023-12-12T03:36:15.265Z,57.50
2023-12-12T03:37:15.383Z,58.34
2023-12-12T03:38:15.400Z,61.16
2023-12-12T03:39:15.480Z,59.08
2023-12-12T03:40:15.610Z,58.49
2023-12-12T03:41:15.626Z,57.87
2023-12-12T03:42:15.690Z,57.32
2023-12-12T03:43:15.840Z,58.53
2023-12-12T03:44:15.844Z,58.01
2023-12-12T03:45:15.910Z,58.92
2023-12-12T03:46:15.993Z,58.71
2023-12-12T03:47:16.060Z,58.06
2023-12-12T03:48:16.266Z,58.57
2023-12-12T03:49:16.315Z,59.00
2023-12-12T03:50:16.292Z,57.44
2023-12-12T03:51:16.325Z,61.08
2023-12-12T03:52:16.417Z,58.05
2023-12-12T03:53:16.421Z,60.96
2023-12-12T03:54:16.522Z,58.75
2023-12-12T03:55:16.590Z,60.21
2023-12-12T03:56:16.616Z,57.80
2023-12-12T03:57:16.667Z,58.99
2023-12-12T03:58:16.748Z,60.34
2023-12-12T03:59:16.793Z,61.63
2023-12-12T04:00:16.910Z,58.87
2023-12-12T04:01:16.984Z,59.12
2023-12-12T04:02:17.007Z,60.50
2023-12-12T04:03:17.031Z,56.84
2023-12-12T04:04:17.080Z,58.59
2023-12-12T04:05:17.188Z,57.26
2023-12-12T04:06:17.179Z,60.64
2023-12-12T04:07:17.294Z,61.39
2023-12-12T04:08:17.275Z,57.42
2023-12-12T04:09:17.314Z,59.52
2023-12-12T04:10:17.393Z,59.13
2023-12-12T04:11:17.423Z,60.64
2023-12-12T04:12:17.472Z,59.37
2023-12-12T04:13:17.604Z,57.35
2023-12-12T04:14:17.560Z,59.51
2023-12-12T04:15:17.613Z,60.19
2023-12-12T04:16:17.735Z,58.21
2023-12-12T04:17:17.699Z,58.30
2023-12-12T04:18:17.893Z,57.90
2023-12-12T04:19:17.928Z,58.71
2023-12-12T04:20:17.849Z,58.27
2023-12-12T04:21:17.914Z,58.76
2023-12-12T04:22:18.011Z,56.07
2023-12-12T04:23:18.025Z,57.66
2023-12-12T04:24:18.027Z,61.31
2023-12-12T04:25:18.187Z,57.16
2023-12-12T04:26:18.148Z,58.41
2023-12-12T04:27:18.169Z,57.34
2023-12-12T04:28:18.289Z,60.78
2023-12-12T04:29:18.327Z,59.51
2023-12-12T04:30:18.371Z,59.82
2023-12-12T04:31:18.554Z,58.21
2023-12-12T04:32:18.449Z,58.29
2023-12-12T04:33:18.645Z,59.40
2023-12-12T04:34:25.937Z,50.00
2023-12-12T04:35:25.886Z,50.00
2023-12-12T04:36:25.857Z,50.00
2023-12-12T04:37:25.924Z,50.00
2023-12-12T04:38:25.876Z,50.00
2023-12-12T04:39:25.902Z,51.43
2023-12-12T04:40:25.931Z,52.50
2023-12-12T04:41:25.868Z,52.33
2023-12-12T04:42:25.897Z,50.33
2023-12-12T04:43:25.875Z,52.94
2023-12-12T04:44:25.867Z,52.48
2023-12-12T04:45:25.904Z,52.71
2023-12-12T04:46:25.975Z,52.72
2023-12-12T04:47:25.938Z,54.13
2023-12-12T04:48:25.973Z,52.81
2023-12-12T04:49:26.009Z,51.71
2023-12-12T04:50:25.909Z,52.09
2023-12-12T04:51:25.886Z,51.01
2023-12-12T04:52:25.910Z,53.26
2023-12-12T04:53:25.869Z,54.16
2023-12-12T04:54:25.905Z,53.83
2023-12-12T04:55:25.948Z,53.89
2023-12-12T04:56:25.887Z,53.08
2023-12-12T04:57:25.928Z,52.31
2023-12-12T04:58:26.012Z,51.95
2023-12-12T04:59:26.072Z,52.81
2023-12-12T05:00:26.097Z,53.99
2023-12-12T05:01:26.321Z,52.37
2023-12-12T05:02:26.291Z,52.82
2023-12-12T05:03:26.396Z,52.63
2023-12-12T05:04:26.355Z,53.37
2023-12-12T05:05:26.429Z,53.27
2023-12-12T05:06:26.493Z,55.64
2023-12-12T05:07:26.539Z,54.01
2023-12-12T05:08:26.575Z,51.76
2023-12-12T05:09:26.589Z,53.00
2023-12-12T05:10:26.665Z,52.41
2023-12-12T05:11:26.692Z,54.59
2023-12-12T05:12:26.742Z,53.33
2023-12-12T05:13:26.917Z,52.83
2023-12-12T05:14:26.821Z,53.57
2023-12-12T05:15:26.867Z,51.88
2023-12-12T05:16:31.880Z,53.97
2023-12-12T05:17:28.119Z,54.01
2023-12-12T05:18:27.019Z,54.02
2023-12-12T05:19:27.058Z,52.35
2023-12-12T05:20:26.979Z,52.71
2023-12-12T05:21:26.930Z,50.25
2023-12-12T05:22:26.963Z,52.42
2023-12-12T05:23:26.938Z,50.00
2023-12-12T05:24:26.923Z,52.13
2023-12-12T05:25:27.054Z,52.18
2023-12-12T05:26:26.946Z,52.66
2023-12-12T05:27:26.960Z,51.78
2023-12-12T05:28:26.983Z,51.47
2023-12-12T05:29:26.906Z,52.18
2023-12-12T05:30:26.905Z,51.32
2023-12-12T05:31:27.056Z,52.74
2023-12-12T05:32:27.054Z,54.26
2023-12-12T05:33:27.110Z,52.40
2023-12-12T05:34:26.945Z,51.56
2023-12-12T05:35:26.951Z,52.28
2023-12-12T05:36:26.974Z,51.09
2023-12-12T05:37:27.004Z,50.86
2023-12-12T05:38:26.936Z,51.72
2023-12-12T05:39:26.933Z,52.13
2023-12-12T05:40:26.983Z,52.63
2023-12-12T05:41:26.956Z,51.40
2023-12-12T05:42:26.950Z,53.99
2023-12-12T05:43:26.984Z,53.36
2023-12-12T05:44:26.962Z,50.41
2023-12-12T05:45:26.933Z,51.32
2023-12-12T05:46:26.966Z,51.43
2023-12-12T05:47:26.980Z,51.33
2023-12-12T05:48:27.020Z,54.40
2023-12-12T05:49:27.027Z,52.64
2023-12-12T05:50:26.942Z,50.75
2023-12-12T05:51:26.952Z,53.76
2023-12-12T05:52:27.058Z,52.90
2023-12-12T05:53:26.965Z,52.33
2023-12-12T05:54:27.277Z,52.13
2023-12-12T05:55:26.965Z,51.08
2023-12-12T05:56:26.942Z,54.28
2023-12-12T05:57:26.956Z,51.37
2023-12-12T05:58:27.032Z,53.16
2023-12-12T05:59:26.938Z,56.87
2023-12-12T06:00:26.955Z,53.38
2023-12-12T06:01:27.013Z,52.56
2023-12-12T06:02:26.933Z,53.05
2023-12-12T06:03:26.947Z,53.69
2023-12-12T06:04:26.980Z,52.09
2023-12-12T06:05:27.038Z,53.71
2023-12-12T06:06:27.002Z,53.96
2023-12-12T06:07:26.994Z,51.92
2023-12-12T06:08:26.978Z,52.49
2023-12-12T06:09:26.969Z,53.23
2023-12-12T06:10:26.957Z,53.87
2023-12-12T06:11:27.016Z,54.79
2023-12-12T06:12:26.995Z,53.91
2023-12-12T06:13:26.996Z,51.60
2023-12-12T06:14:26.971Z,52.17
2023-12-12T06:15:26.975Z,53.41
2023-12-12T06:16:27.001Z,50.00
2023-12-12T06:17:26.992Z,53.44
2023-12-12T06:18:27.039Z,52.29
2023-12-12T06:19:27.106Z,54.45
2023-12-12T06:20:27.011Z,53.61
2023-12-12T06:21:27.000Z,53.25
2023-12-12T06:22:27.082Z,54.08
2023-12-12T06:23:26.976Z,54.18
2023-12-12T06:24:26.986Z,53.55
2023-12-12T06:25:27.031Z,54.08
2023-12-12T06:26:26.995Z,56.22
2023-12-12T06:27:27.012Z,54.65
2023-12-12T06:28:26.977Z,55.65
2023-12-12T06:29:27.023Z,52.88
2023-12-12T06:30:26.973Z,54.24
2023-12-12T06:31:27.087Z,55.75
2023-12-12T06:32:27.051Z,54.87
2023-12-12T06:33:27.024Z,55.14
2023-12-12T06:34:27.063Z,53.93
2023-12-12T06:35:27.079Z,53.93
2023-12-12T06:36:26.999Z,56.02
2023-12-12T06:37:27.076Z,50.79
2023-12-12T06:38:27.025Z,51.43
2023-12-12T06:39:26.975Z,50.38
2023-12-12T06:40:27.004Z,52.26
2023-12-12T06:41:27.008Z,54.98
2023-12-12T06:42:27.054Z,54.23
2023-12-12T06:43:27.054Z,58.29
2023-12-12T06:44:27.004Z,53.53
2023-12-12T06:45:26.969Z,50.23
2023-12-12T06:46:27.034Z,51.57
2023-12-12T06:47:27.062Z,56.69
2023-12-12T06:48:27.079Z,55.68
2023-12-12T06:49:27.129Z,58.49
2023-12-12T06:50:26.996Z,67.14
2023-12-12T06:51:26.986Z,68.26
2023-12-12T06:52:27.077Z,74.63
2023-12-12T06:53:27.595Z,79.25
2023-12-12T06:54:27.139Z,84.79
2023-12-12T06:55:27.140Z,90.51
2023-12-12T06:56:27.174Z,92.08
2023-12-12T06:57:27.240Z,94.13
2023-12-12T06:58:28.052Z,96.51
2023-12-12T06:59:27.221Z,97.04
2023-12-12T07:00:27.235Z,95.42
2023-12-12T07:01:27.385Z,99.24
2023-12-12T07:02:27.304Z,95.91
2023-12-12T07:03:27.594Z,94.76
2023-12-12T07:04:27.475Z,90.41
2023-12-12T07:05:27.430Z,90.21
2023-12-12T07:06:27.511Z,89.96
2023-12-12T07:07:27.550Z,88.10
2023-12-12T07:08:27.572Z,89.94
2023-12-12T07:09:27.552Z,93.30
2023-12-12T07:10:27.550Z,93.02
2023-12-12T07:11:27.574Z,94.75
2023-12-12T07:12:27.677Z,93.28
2023-12-12T07:13:27.802Z,93.90
2023-12-12T07:14:27.767Z,95.78
2023-12-12T07:15:27.854Z,99.40
2023-12-12T07:16:28.155Z,98.29
2023-12-12T07:17:27.936Z,99.25
2023-12-12T07:18:28.029Z,103.34
2023-12-12T07:19:28.148Z,110.30
2023-12-12T07:20:28.155Z,107.77
2023-12-12T07:21:28.591Z,109.68
2023-12-12T07:22:28.217Z,111.14
2023-12-12T07:23:28.264Z,110.61
2023-12-12T07:24:28.303Z,110.52
2023-12-12T07:25:28.423Z,113.48
2023-12-12T07:26:28.633Z,110.92
2023-12-12T07:27:28.492Z,117.21
2023-12-12T07:28:28.517Z,115.70
2023-12-12T07:29:28.558Z,115.65
2023-12-12T07:30:28.658Z,115.07
2023-12-12T07:31:28.603Z,116.97
2023-12-12T07:32:28.694Z,118.20
2023-12-12T07:33:29.188Z,118.36
2023-12-12T07:34:28.676Z,119.73
2023-12-12T07:35:28.716Z,121.21
2023-12-12T07:36:29.602Z,120.65
2023-12-12T07:37:28.984Z,117.86
2023-12-12T07:38:28.785Z,108.31
2023-12-12T07:39:28.842Z,113.06
2023-12-12T07:40:28.807Z,113.65
2023-12-12T07:41:28.817Z,114.16
2023-12-12T07:42:31.579Z,116.78
2023-12-12T07:43:29.208Z,123.12
2023-12-12T07:44:28.872Z,120.73
2023-12-12T07:45:29.080Z,120.53
2023-12-12T07:46:28.815Z,119.22
2023-12-12T07:47:34.585Z,118.90
2023-12-12T07:48:30.143Z,118.99
2023-12-12T07:49:28.987Z,119.29
2023-12-12T07:50:28.867Z,119.52
2023-12-12T07:51:30.054Z,120.22
2023-12-12T07:52:28.973Z,120.65
2023-12-12T07:53:29.236Z,121.19
2023-12-12T07:54:28.913Z,124.18
2023-12-12T07:55:29.251Z,125.31
2023-12-12T07:56:28.872Z,125.29
2023-12-12T07:57:29.018Z,124.38
2023-12-12T07:58:29.111Z,121.50
2023-12-12T07:59:28.822Z,120.25
2023-12-12T08:00:28.846Z,118.99
2023-12-12T08:01:28.980Z,115.42
2023-12-12T08:02:29.485Z,115.15
2023-12-12T08:03:29.073Z,116.76
2023-12-12T08:04:29.028Z,114.53
2023-12-12T08:05:28.940Z,112.49
2023-12-12T08:06:28.959Z,112.08
2023-12-12T08:07:28.978Z,112.31
2023-12-12T08:08:29.045Z,112.57
2023-12-12T08:09:28.896Z,112.46
2023-12-12T08:10:28.959Z,111.94
2023-12-12T08:11:30.483Z,111.83
2023-12-12T08:12:29.003Z,110.26
2023-12-12T08:13:30.362Z,113.67
2023-12-12T08:14:29.079Z,112.61
2023-12-12T08:15:29.054Z,115.48
2023-12-12T08:16:29.189Z,117.29
2023-12-12T08:17:29.229Z,114.32
2023-12-12T08:18:31.039Z,113.07
2023-12-12T08:19:29.417Z,111.08
2023-12-12T08:20:29.315Z,113.37
2023-12-12T08:21:29.920Z,112.08
2023-12-12T08:22:29.484Z,111.66
2023-12-12T08:23:32.280Z,112.15
2023-12-12T08:24:29.463Z,112.20
2023-12-12T08:25:29.557Z,112.39
2023-12-12T08:26:29.695Z,112.71
2023-12-12T08:27:31.747Z,112.41
2023-12-12T08:28:29.581Z,114.44
2023-12-12T08:29:32.295Z,112.11
2023-12-12T08:30:29.636Z,113.75
2023-12-12T08:31:29.660Z,109.66
2023-12-12T08:32:29.678Z,111.04
2023-12-12T08:33:29.706Z,109.96
2023-12-12T08:34:29.596Z,112.04
2023-12-12T08:35:29.584Z,113.17
2023-12-12T08:36:29.619Z,116.33
2023-12-12T08:37:29.877Z,125.28
2023-12-12T08:38:29.805Z,121.65
2023-12-12T08:39:30.080Z,118.72
2023-12-12T08:40:29.638Z,114.74
2023-12-12T08:41:29.648Z,107.65
2023-12-12T08:42:30.085Z,106.79
2023-12-12T08:43:29.700Z,103.41
2023-12-12T08:44:29.639Z,99.08
2023-12-12T08:45:29.595Z,98.40
2023-12-12T08:46:29.674Z,95.15
2023-12-12T08:47:30.554Z,92.28
2023-12-12T08:48:29.680Z,96.29
2023-12-12T08:49:29.639Z,94.93
2023-12-12T08:50:30.098Z,92.46
2023-12-12T08:51:29.595Z,93.53
2023-12-12T08:52:29.737Z,92.11
2023-12-12T08:53:29.629Z,93.67
2023-12-12T08:54:29.595Z,93.08
2023-12-12T08:55:30.189Z,93.28
2023-12-12T08:56:29.694Z,92.21
2023-12-12T08:57:29.875Z,92.94
2023-12-12T08:58:29.698Z,93.39
2023-12-12T08:59:29.646Z,94.99
2023-12-12T09:00:30.156Z,95.67
2023-12-12T09:01:29.743Z,96.20
2023-12-12T09:02:29.634Z,99.70
2023-12-12T09:03:29.649Z,98.74
2023-12-12T09:04:30.177Z,98.53
2023-12-12T09:05:29.664Z,97.88
2023-12-12T09:06:29.641Z,99.24
2023-12-12T09:07:30.912Z,100.37
2023-12-12T09:08:29.667Z,103.53
2023-12-12T09:09:30.150Z,104.78
2023-12-12T09:10:29.759Z,105.92
2023-12-12T09:11:30.406Z,105.34
2023-12-12T09:12:29.620Z,107.08
2023-12-12T09:13:29.733Z,109.43
2023-12-12T09:14:29.650Z,107.18
2023-12-12T09:15:29.669Z,106.86
2023-12-12T09:16:30.168Z,105.96
2023-12-12T09:17:30.153Z,108.15
2023-12-12T09:18:29.878Z,106.16
2023-12-12T09:19:30.712Z,108.88
2023-12-12T09:20:29.787Z,108.71
2023-12-12T09:21:30.417Z,113.17
2023-12-12T09:22:29.788Z,112.68
2023-12-12T09:23:31.053Z,113.56
2023-12-12T09:24:29.821Z,115.34
2023-12-12T09:25:30.172Z,114.63
2023-12-12T09:26:29.891Z,114.97
2023-12-12T09:27:30.364Z,126.70
2023-12-12T09:28:30.048Z,130.87
2023-12-12T09:29:30.071Z,135.36
2023-12-12T09:30:30.182Z,138.17
2023-12-12T09:31:30.279Z,135.43
2023-12-12T09:32:30.593Z,130.32
2023-12-12T09:33:30.954Z,123.79
2023-12-12T09:34:30.452Z,119.06
2023-12-12T09:35:30.676Z,117.08
2023-12-12T09:36:32.753Z,115.79
2023-12-12T09:37:30.660Z,115.02
2023-12-12T09:38:31.146Z,113.27
2023-12-12T09:39:30.662Z,114.28
2023-12-12T09:40:30.306Z,112.16
2023-12-12T09:41:30.286Z,112.12
2023-12-12T09:42:30.288Z,110.51
2023-12-12T09:43:30.330Z,113.39
2023-12-12T09:44:30.602Z,109.20
2023-12-12T09:45:30.334Z,107.48
2023-12-12T09:46:30.356Z,103.82
2023-12-12T09:47:30.726Z,101.75
2023-12-12T09:48:30.722Z,99.01
2023-12-12T09:49:30.817Z,97.75
2023-12-12T09:50:30.327Z,94.78
2023-12-12T09:51:30.319Z,94.64
2023-12-12T09:52:30.366Z,91.87
2023-12-12T09:53:30.394Z,90.57
2023-12-12T09:54:30.643Z,88.26
2023-12-12T09:55:30.372Z,88.75
2023-12-12T09:56:30.349Z,88.10
2023-12-12T09:57:30.960Z,84.27
2023-12-12T09:58:30.366Z,82.56
2023-12-12T09:59:30.679Z,83.13
2023-12-12T10:00:30.316Z,82.19
2023-12-12T10:01:30.672Z,84.16
2023-12-12T10:02:30.356Z,81.73
2023-12-12T10:03:30.447Z,80.55
2023-12-12T10:04:30.346Z,80.09
2023-12-12T10:05:30.396Z,78.62
2023-12-12T10:06:31.986Z,79.01
2023-12-12T10:07:30.854Z,78.73
2023-12-12T10:08:30.431Z,77.94
2023-12-12T10:09:30.492Z,78.05
2023-12-12T10:10:30.589Z,76.20
2023-12-12T10:11:30.657Z,75.40
2023-12-12T10:12:31.730Z,78.14
2023-12-12T10:13:30.689Z,76.30
2023-12-12T10:14:30.738Z,76.80
2023-12-12T10:15:30.801Z,76.24
2023-12-12T10:16:31.169Z,74.15
2023-12-12T10:17:31.142Z,73.21
2023-12-12T10:18:31.020Z,73.36
2023-12-12T10:19:31.123Z,71.59
2023-12-12T10:20:31.145Z,71.52
2023-12-12T10:21:31.172Z,74.04
2023-12-12T10:22:31.543Z,73.34
2023-12-12T10:23:31.354Z,72.07
2023-12-12T10:24:31.471Z,75.32
2023-12-12T10:25:31.510Z,74.22
2023-12-12T10:26:31.816Z,74.50
2023-12-12T10:27:31.583Z,70.70
2023-12-12T10:28:32.144Z,72.25
2023-12-12T10:29:31.730Z,70.94
2023-12-12T10:30:31.848Z,73.02
2023-12-12T10:31:31.860Z,72.14
2023-12-12T10:32:32.196Z,72.02
2023-12-12T10:33:32.070Z,72.50
2023-12-12T10:34:32.199Z,74.65
2023-12-12T10:35:32.166Z,73.42
2023-12-12T10:36:32.669Z,74.92
2023-12-12T10:37:32.351Z,72.79
2023-12-12T10:38:32.408Z,74.02
2023-12-12T10:39:32.415Z,75.06
2023-12-12T10:40:32.527Z,73.66
2023-12-12T10:41:32.545Z,74.86
2023-12-12T10:42:32.843Z,71.15
2023-12-12T10:43:33.179Z,73.87
2023-12-12T10:44:32.756Z,72.90
2023-12-12T10:45:32.835Z,73.29
2023-12-12T10:46:32.923Z,73.53
2023-12-12T10:47:33.040Z,70.81
2023-12-12T10:48:33.227Z,71.34
2023-12-12T10:49:33.283Z,71.81
2023-12-12T10:50:33.281Z,70.04
2023-12-12T10:51:33.635Z,69.28
2023-12-12T10:52:33.634Z,68.61
2023-12-12T10:53:33.391Z,72.55
2023-12-12T10:54:33.404Z,78.73
2023-12-12T10:55:33.456Z,84.31
2023-12-12T10:56:33.462Z,86.13
2023-12-12T10:57:33.532Z,88.83
2023-12-12T10:58:33.688Z,88.96
2023-12-12T10:59:58.018Z,85.85
2023-12-12T11:00:34.656Z,85.29
2023-12-12T11:01:33.744Z,83.73
2023-12-12T11:02:33.943Z,83.38
2023-12-12T11:03:33.689Z,81.67
2023-12-12T11:04:33.689Z,78.44
2023-12-12T11:05:33.744Z,78.77
2023-12-12T11:06:33.722Z,75.79
2023-12-12T11:07:33.668Z,70.21
2023-12-12T11:08:34.274Z,69.65
2023-12-12T11:09:34.349Z,65.22
2023-12-12T11:10:33.750Z,65.04
2023-12-12T11:11:33.773Z,63.86
2023-12-12T11:12:33.968Z,61.01
2023-12-12T11:13:33.775Z,59.86
2023-12-12T11:14:34.225Z,58.54
2023-12-12T11:15:34.138Z,57.06
2023-12-12T11:16:33.997Z,56.15
2023-12-12T11:17:34.077Z,55.33
2023-12-12T11:18:34.239Z,56.72
2023-12-12T11:19:34.194Z,54.19
2023-12-12T11:20:34.708Z,52.62
2023-12-12T11:21:34.284Z,53.26
2023-12-12T11:22:35.938Z,50.00
2023-12-12T11:23:34.406Z,51.07
2023-12-12T11:24:34.472Z,50.00
2023-12-12T11:25:34.566Z,51.31
2023-12-12T11:26:34.617Z,50.54
2023-12-12T11:27:34.678Z,50.41
2023-12-12T11:28:34.701Z,52.70
2023-12-12T11:29:34.737Z,50.00
2023-12-12T11:30:34.832Z,53.30
2023-12-12T11:31:34.839Z,49.37
2023-12-12T11:32:35.561Z,51.34
2023-12-12T11:33:34.968Z,50.16
2023-12-12T11:34:34.816Z,51.28
2023-12-12T11:35:34.893Z,52.88
2023-12-12T11:36:34.900Z,51.20
2023-12-12T11:37:35.323Z,51.90
2023-12-12T11:38:35.257Z,52.34
2023-12-12T11:39:36.385Z,52.76
2023-12-12T11:40:35.167Z,51.82
2023-12-12T11:41:35.083Z,53.52
2023-12-12T11:42:35.352Z,54.47
2023-12-12T11:43:35.174Z,51.92
2023-12-12T11:44:35.100Z,54.64
2023-12-12T11:45:35.254Z,56.29
2023-12-12T11:46:35.172Z,54.09
2023-12-12T11:47:35.253Z,56.90
2023-12-12T11:48:35.125Z,58.07
2023-12-12T11:49:35.199Z,56.54
2023-12-12T11:50:35.217Z,58.19
2023-12-12T11:51:35.117Z,58.05
2023-12-12T11:52:35.193Z,57.59
2023-12-12T11:53:35.108Z,59.02
2023-12-12T11:54:35.496Z,60.02
2023-12-12T11:55:35.432Z,58.31
2023-12-12T11:56:35.361Z,60.86
2023-12-12T11:57:35.486Z,61.30
2023-12-12T11:58:35.215Z,60.81
2023-12-12T11:59:35.186Z,62.99
2023-12-12T12:00:35.522Z,62.98
2023-12-12T12:01:35.413Z,62.34
2023-12-12T12:02:35.312Z,67.00
2023-12-12T12:03:35.197Z,167.84
2023-12-12T12:04:35.279Z,253.82
2023-12-12T12:05:35.148Z,303.33
2023-12-12T12:06:35.152Z,343.65
2023-12-12T12:07:35.195Z,342.34
2023-12-12T12:08:35.102Z,323.25
2023-12-12T12:09:35.210Z,304.25
2023-12-12T12:10:35.184Z,294.26
2023-12-12T12:11:35.162Z,291.15
2023-12-12T12:12:35.237Z,282.55
2023-12-12T12:13:36.399Z,275.84
2023-12-12T12:14:35.300Z,256.88
2023-12-12T12:15:35.197Z,239.44
2023-12-12T12:16:35.252Z,223.47
2023-12-12T12:17:35.204Z,209.14
2023-12-12T12:18:35.253Z,198.52
2023-12-12T12:19:35.768Z,194.12
2023-12-12T12:20:35.693Z,187.75
2023-12-12T12:21:35.710Z,181.03
2023-12-12T12:22:35.676Z,175.82
2023-12-12T12:23:35.838Z,173.27
2023-12-12T12:24:35.596Z,168.40
2023-12-12T12:25:35.741Z,165.45
2023-12-12T12:26:35.725Z,163.54
2023-12-12T12:27:35.739Z,160.66
2023-12-12T12:28:35.980Z,157.05
2023-12-12T12:29:35.856Z,153.40
2023-12-12T12:30:35.936Z,151.02
2023-12-12T12:31:36.021Z,148.45
2023-12-12T12:32:36.210Z,146.07
2023-12-12T12:33:36.051Z,143.83
2023-12-12T12:34:36.237Z,142.12
2023-12-12T12:35:36.142Z,140.13
2023-12-12T12:36:36.294Z,138.34
2023-12-12T12:37:36.332Z,136.04
2023-12-12T12:38:36.304Z,134.53
2023-12-12T12:39:36.376Z,132.07
2023-12-12T12:40:36.617Z,129.77
2023-12-12T12:41:36.413Z,128.66
2023-12-12T12:42:36.573Z,126.64
2023-12-12T12:43:36.585Z,124.47
2023-12-12T12:44:36.606Z,123.60
2023-12-12T12:45:36.631Z,121.13
2023-12-12T12:46:36.790Z,120.43
2023-12-12T12:47:36.878Z,118.61